sensor_id;sensor_type;location;lat;lon;timestamp;pressure;altitude;pressure_sealevel;temperature;humidity
55317;BME280;41178;48.956;8.130;2023-04-02T00:19:40;98812.53;;;9.66;55.13
55317;BME280;41178;48.956;8.130;2023-04-02T00:24:42;98936.06;;;10.96;53.16
55317;BME280;41178;48.956;8.130;2023-04-02T00:29:49;98940.19;;;10.59;54.41
55317;BME280;41178;48.956;8.130;2023-04-02T00:34:51;98925.19;;;10.78;52.51
55317;BME280;41178;48.956;8.130;2023-04-02T00:40:08;98903.53;;;10.32;53.89
55317;BME280;41178;48.956;8.130;2023-04-02T00:45:24;98772.78;;;9.29;54.72
55317;BME280;41178;48.956;8.130;2023-04-02T00:50:33;98981.78;;;11.21;51.89
55317;BME280;41178;48.956;8.130;2023-04-02T00:55:38;98957.69;;;10.81;52.29
55317;BME280;41178;48.956;8.130;2023-04-02T01:00:48;98915.69;;;10.48;53.21
55317;BME280;41178;48.956;8.130;2023-04-02T01:05:56;99009.03;;;12.35;50.57
55317;BME280;41178;48.956;8.130;2023-04-02T01:21:51;99001.31;;;11.35;51.57
55317;BME280;41178;48.956;8.130;2023-04-02T01:27:03;98978.69;;;11.04;51.42
55317;BME280;41178;48.956;8.130;2023-04-02T01:32:09;98966.34;;;10.70;52.57
55317;BME280;41178;48.956;8.130;2023-04-02T01:47:41;99011.22;;;11.08;52.83
55317;BME280;41178;48.956;8.130;2023-04-02T01:52:44;99027.28;;;11.48;51.99
55317;BME280;41178;48.956;8.130;2023-04-02T01:57:49;98964.50;;;10.97;51.53
55317;BME280;41178;48.956;8.130;2023-04-02T02:02:52;99131.91;;;13.86;47.66
55317;BME280;41178;48.956;8.130;2023-04-02T02:07:55;98886.59;;;9.92;52.63
55317;BME280;41178;48.956;8.130;2023-04-02T02:12:59;99059.13;;;12.87;49.05
55317;BME280;41178;48.956;8.130;2023-04-02T02:18:03;99058.69;;;12.58;49.42
55317;BME280;41178;48.956;8.130;2023-04-02T02:23:08;99040.06;;;12.18;50.18
55317;BME280;41178;48.956;8.130;2023-04-02T02:33:39;99050.56;;;13.28;47.40
55317;BME280;41178;48.956;8.130;2023-04-02T02:44:13;99076.28;;;12.47;50.57
55317;BME280;41178;48.956;8.130;2023-04-02T02:49:21;99030.47;;;11.97;50.02
55317;BME280;41178;48.956;8.130;2023-04-02T02:54:27;99029.53;;;12.62;48.76
55317;BME280;41178;48.956;8.130;2023-04-02T02:59:31;99067.63;;;11.87;50.79
55317;BME280;41178;48.956;8.130;2023-04-02T03:04:33;99008.16;;;10.84;52.61
55317;BME280;41178;48.956;8.130;2023-04-02T03:09:52;99081.13;;;12.25;50.47
55317;BME280;41178;48.956;8.130;2023-04-02T03:26:21;99043.94;;;11.50;50.86
55317;BME280;41178;48.956;8.130;2023-04-02T03:31:31;98959.06;;;10.30;53.35
55317;BME280;41178;48.956;8.130;2023-04-02T03:36:39;99049.94;;;12.31;49.46
55317;BME280;41178;48.956;8.130;2023-04-02T03:46:57;99044.63;;;11.05;53.49
55317;BME280;41178;48.956;8.130;2023-04-02T03:52:09;99069.13;;;11.22;52.99
55317;BME280;41178;48.956;8.130;2023-04-02T03:57:27;99018.16;;;10.56;53.61
55317;BME280;41178;48.956;8.130;2023-04-02T04:02:34;99087.66;;;11.17;53.91
55317;BME280;41178;48.956;8.130;2023-04-02T04:07:40;99080.03;;;11.54;52.81
55317;BME280;41178;48.956;8.130;2023-04-02T04:12:47;98923.28;;;8.93;57.54
55317;BME280;41178;48.956;8.130;2023-04-02T04:18:28;99058.63;;;10.32;55.08
55317;BME280;41178;48.956;8.130;2023-04-02T04:23:37;99124.38;;;12.42;51.44
55317;BME280;41178;48.956;8.130;2023-04-02T04:28:58;99105.78;;;11.22;53.06
55317;BME280;41178;48.956;8.130;2023-04-02T04:34:20;99124.31;;;11.57;51.86
55317;BME280;41178;48.956;8.130;2023-04-02T04:39:44;99168.41;;;13.18;48.85
55317;BME280;41178;48.956;8.130;2023-04-02T04:44:56;99063.97;;;11.01;52.26
55317;BME280;41178;48.956;8.130;2023-04-02T04:55:29;99182.16;;;12.51;50.32
55317;BME280;41178;48.956;8.130;2023-04-02T05:00:55;99184.53;;;11.94;51.92
55317;BME280;41178;48.956;8.130;2023-04-02T05:06:07;99203.44;;;12.33;52.24
55317;BME280;41178;48.956;8.130;2023-04-02T05:11:14;99151.91;;;11.04;52.84
55317;BME280;41178;48.956;8.130;2023-04-02T05:16:27;99192.09;;;12.31;51.36
55317;BME280;41178;48.956;8.130;2023-04-02T05:22:36;99170.25;;;11.07;53.25
55317;BME280;41178;48.956;8.130;2023-04-02T05:27:25;99195.66;;;11.51;52.71
55317;BME280;41178;48.956;8.130;2023-04-02T05:32:31;99166.28;;;10.89;53.14
55317;BME280;41178;48.956;8.130;2023-04-02T05:37:37;99158.69;;;12.27;50.06
55317;BME280;41178;48.956;8.130;2023-04-02T05:42:42;99140.78;;;11.00;52.14
55317;BME280;41178;48.956;8.130;2023-04-02T05:47:49;99186.16;;;11.49;51.93
55317;BME280;41178;48.956;8.130;2023-04-02T05:53:01;99196.81;;;11.15;53.66
55317;BME280;41178;48.956;8.130;2023-04-02T05:58:59;99136.81;;;10.35;54.67
55317;BME280;41178;48.956;8.130;2023-04-02T06:03:44;99233.84;;;11.73;52.83
55317;BME280;41178;48.956;8.130;2023-04-02T06:08:57;99218.19;;;10.95;53.79
55317;BME280;41178;48.956;8.130;2023-04-02T06:14:02;99251.72;;;12.60;50.58
55317;BME280;41178;48.956;8.130;2023-04-02T06:19:14;99279.19;;;11.81;52.65
55317;BME280;41178;48.956;8.130;2023-04-02T06:24:21;99263.47;;;11.58;53.18
55317;BME280;41178;48.956;8.130;2023-04-02T06:34:32;99310.38;;;13.21;49.95
55317;BME280;41178;48.956;8.130;2023-04-02T06:39:37;99277.56;;;12.21;51.67
55317;BME280;41178;48.956;8.130;2023-04-02T06:44:38;99355.81;;;13.75;48.80
55317;BME280;41178;48.956;8.130;2023-04-02T07:00:42;99382.88;;;13.80;48.73
55317;BME280;41178;48.956;8.130;2023-04-02T07:05:44;99373.00;;;13.28;50.70
55317;BME280;41178;48.956;8.130;2023-04-02T07:10:46;99211.28;;;10.38;53.82
55317;BME280;41178;48.956;8.130;2023-04-02T07:15:50;99365.34;;;13.32;49.60
55317;BME280;41178;48.956;8.130;2023-04-02T07:20:53;99354.09;;;12.10;51.87
55317;BME280;41178;48.956;8.130;2023-04-02T07:25:55;99332.88;;;12.22;51.63
55317;BME280;41178;48.956;8.130;2023-04-02T07:30:58;99374.56;;;12.51;51.59
55317;BME280;41178;48.956;8.130;2023-04-02T07:35:59;99373.19;;;13.20;49.75
55317;BME280;41178;48.956;8.130;2023-04-02T07:41:05;99425.56;;;13.63;49.90
55317;BME280;41178;48.956;8.130;2023-04-02T07:46:08;99502.00;;;14.96;47.93
55317;BME280;41178;48.956;8.130;2023-04-02T07:51:18;99462.44;;;14.39;48.36
55317;BME280;41178;48.956;8.130;2023-04-02T07:56:22;99396.81;;;13.05;50.41
55317;BME280;41178;48.956;8.130;2023-04-02T08:01:25;99321.66;;;11.71;52.60
55317;BME280;41178;48.956;8.130;2023-04-02T08:06:28;99383.84;;;12.48;51.17
55317;BME280;41178;48.956;8.130;2023-04-02T08:11:29;99323.91;;;11.13;53.01
55317;BME280;41178;48.956;8.130;2023-04-02T08:16:45;99468.41;;;14.03;49.83
55317;BME280;41178;48.956;8.130;2023-04-02T08:21:48;99442.00;;;13.48;50.04
55317;BME280;41178;48.956;8.130;2023-04-02T08:26:52;99434.47;;;13.63;48.76
55317;BME280;41178;48.956;8.130;2023-04-02T08:31:53;99458.38;;;12.60;51.24
55317;BME280;41178;48.956;8.130;2023-04-02T08:36:57;99461.97;;;13.65;49.01
55317;BME280;41178;48.956;8.130;2023-04-02T08:42:15;99423.63;;;12.25;51.34
55317;BME280;41178;48.956;8.130;2023-04-02T08:47:20;99469.03;;;14.12;47.93
55317;BME280;41178;48.956;8.130;2023-04-02T08:52:31;99444.91;;;13.26;49.01
55317;BME280;41178;48.956;8.130;2023-04-02T08:57:44;99533.22;;;14.78;47.89
55317;BME280;41178;48.956;8.130;2023-04-02T09:02:55;99463.34;;;13.03;49.68
55317;BME280;41178;48.956;8.130;2023-04-02T09:08:01;99430.25;;;12.35;50.96
55317;BME280;41178;48.956;8.130;2023-04-02T09:13:13;99537.56;;;14.48;47.46
55317;BME280;41178;48.956;8.130;2023-04-02T09:18:18;99467.66;;;12.84;49.60
55317;BME280;41178;48.956;8.130;2023-04-02T09:23:22;99553.91;;;14.53;47.97
55317;BME280;41178;48.956;8.130;2023-04-02T09:28:25;99473.00;;;13.37;48.18
55317;BME280;41178;48.956;8.130;2023-04-02T09:33:44;99466.41;;;13.33;47.81
55317;BME280;41178;48.956;8.130;2023-04-02T09:39:02;99519.19;;;13.86;47.57
55317;BME280;41178;48.956;8.130;2023-04-02T09:44:22;99586.91;;;14.73;46.86
55317;BME280;41178;48.956;8.130;2023-04-02T09:49:26;99515.78;;;14.17;46.67
55317;BME280;41178;48.956;8.130;2023-04-02T09:54:29;99501.00;;;13.75;47.74
55317;BME280;41178;48.956;8.130;2023-04-02T09:59:30;99471.47;;;13.61;47.13
55317;BME280;41178;48.956;8.130;2023-04-02T10:04:47;99548.50;;;14.91;46.40
55317;BME280;41178;48.956;8.130;2023-04-02T10:10:18;99541.50;;;15.34;45.76
55317;BME280;41178;48.956;8.130;2023-04-02T10:15:22;99566.50;;;15.85;44.86
55317;BME280;41178;48.956;8.130;2023-04-02T10:20:27;99520.44;;;14.99;46.15
55317;BME280;41178;48.956;8.130;2023-04-02T10:25:39;99527.28;;;14.70;46.47
55317;BME280;41178;48.956;8.130;2023-04-02T10:30:57;99579.78;;;15.86;44.74
55317;BME280;41178;48.956;8.130;2023-04-02T10:52:19;99472.66;;;13.85;45.84
55317;BME280;41178;48.956;8.130;2023-04-02T10:57:37;99536.09;;;15.78;43.73
55317;BME280;41178;48.956;8.130;2023-04-02T11:06:41;99589.94;;;10.25;53.00
55317;BME280;41178;48.956;8.130;2023-04-02T11:11:48;99647.16;;;10.76;52.96
55317;BME280;41178;48.956;8.130;2023-04-02T11:16:53;99507.25;;;9.19;54.95
55317;BME280;41178;48.956;8.130;2023-04-02T11:42:37;99642.81;;;10.60;53.00
55317;BME280;41178;48.956;8.130;2023-04-02T12:14:58;99712.59;;;12.03;50.97
55317;BME280;41178;48.956;8.130;2023-04-02T12:20:17;99680.34;;;13.41;47.60
55317;BME280;41178;48.956;8.130;2023-04-02T12:25:35;99666.53;;;11.92;49.95
55317;BME280;41178;48.956;8.130;2023-04-02T12:30:40;99681.84;;;12.33;49.06
55317;BME280;41178;48.956;8.130;2023-04-02T12:35:43;99685.44;;;13.02;47.95
55317;BME280;41178;48.956;8.130;2023-04-02T12:46:05;99685.88;;;11.59;53.35
55317;BME280;41178;48.956;8.130;2023-04-02T12:51:09;99649.81;;;10.76;55.04
55317;BME280;41178;48.956;8.130;2023-04-02T12:56:18;99632.44;;;10.20;56.74
55317;BME280;41178;48.956;8.130;2023-04-02T13:01:21;99701.13;;;11.16;55.90
55317;BME280;41178;48.956;8.130;2023-04-02T13:06:24;99671.09;;;10.18;57.93
55317;BME280;41178;48.956;8.130;2023-04-02T13:11:38;99633.94;;;9.40;59.54
55317;BME280;41178;48.956;8.130;2023-04-02T13:16:40;99729.03;;;11.06;57.07
55317;BME280;41178;48.956;8.130;2023-04-02T13:21:45;99683.50;;;9.95;59.04
55317;BME280;41178;48.956;8.130;2023-04-02T13:26:48;99725.69;;;10.53;58.25
55317;BME280;41178;48.956;8.130;2023-04-02T13:31:51;99693.28;;;9.88;59.02
55317;BME280;41178;48.956;8.130;2023-04-02T13:36:54;99717.84;;;10.37;57.36
55317;BME280;41178;48.956;8.130;2023-04-02T13:41:56;99743.03;;;10.57;57.06
55317;BME280;41178;48.956;8.130;2023-04-02T13:46:59;99707.09;;;9.54;58.53
55317;BME280;41178;48.956;8.130;2023-04-02T13:52:02;99766.97;;;10.06;58.28
55317;BME280;41178;48.956;8.130;2023-04-02T13:57:05;99747.75;;;9.64;58.03
55317;BME280;41178;48.956;8.130;2023-04-02T14:02:13;99778.25;;;9.70;57.56
55317;BME280;41178;48.956;8.130;2023-04-02T14:07:49;99800.22;;;9.80;57.27
55317;BME280;41178;48.956;8.130;2023-04-02T14:18:42;99836.72;;;10.34;55.53
55317;BME280;41178;48.956;8.130;2023-04-02T14:34:15;99834.97;;;9.26;57.49
55317;BME280;41178;48.956;8.130;2023-04-02T14:39:45;99897.81;;;9.76;57.01
55317;BME280;41178;48.956;8.130;2023-04-02T14:44:59;99858.28;;;8.92;58.27
55317;BME280;41178;48.956;8.130;2023-04-02T14:50:11;99846.78;;;8.75;58.05
55317;BME280;41178;48.956;8.130;2023-04-02T14:55:23;99805.91;;;8.10;59.30
55317;BME280;41178;48.956;8.130;2023-04-02T15:00:40;99929.19;;;9.43;58.20
55317;BME280;41178;48.956;8.130;2023-04-02T15:05:53;99900.97;;;8.84;57.60
55317;BME280;41178;48.956;8.130;2023-04-02T15:31:34;99894.47;;;7.88;59.02
55317;BME280;41178;48.956;8.130;2023-04-02T15:47:24;100007.72;;;8.92;56.56
55317;BME280;41178;48.956;8.130;2023-04-02T16:08:50;99925.16;;;7.15;58.81
55317;BME280;41178;48.956;8.130;2023-04-02T16:19:34;100080.22;;;8.46;58.42
55317;BME280;41178;48.956;8.130;2023-04-02T16:24:41;100110.91;;;8.67;57.30
55317;BME280;41178;48.956;8.130;2023-04-02T16:30:23;100081.56;;;8.00;57.73
55317;BME280;41178;48.956;8.130;2023-04-02T16:35:49;100141.31;;;8.74;57.16
55317;BME280;41178;48.956;8.130;2023-04-02T16:51:56;100158.88;;;8.08;57.68
55317;BME280;41178;48.956;8.130;2023-04-02T16:57:29;100178.25;;;8.10;57.68
55317;BME280;41178;48.956;8.130;2023-04-02T17:08:31;100232.03;;;9.42;54.48
55317;BME280;41178;48.956;8.130;2023-04-02T17:18:55;100205.56;;;7.86;56.91
55317;BME280;41178;48.956;8.130;2023-04-02T17:29:35;100198.78;;;7.29;57.25
55317;BME280;41178;48.956;8.130;2023-04-02T17:34:38;100248.59;;;7.73;56.25
55317;BME280;41178;48.956;8.130;2023-04-02T18:11:13;100276.56;;;6.68;56.77
55317;BME280;41178;48.956;8.130;2023-04-02T18:16:20;100361.72;;;7.33;55.30
55317;BME280;41178;48.956;8.130;2023-04-02T19:04:26;100521.03;;;8.21;54.40
55317;BME280;41178;48.956;8.130;2023-04-02T19:09:38;100445.97;;;6.57;57.33
55317;BME280;41178;48.956;8.130;2023-04-02T19:14:41;100388.50;;;5.98;58.84
55317;BME280;41178;48.956;8.130;2023-04-02T19:20:06;100536.13;;;7.84;55.58
55317;BME280;41178;48.956;8.130;2023-04-02T19:25:52;100537.03;;;7.18;56.27
55317;BME280;41178;48.956;8.130;2023-04-02T19:36:43;100568.50;;;7.42;54.51
55317;BME280;41178;48.956;8.130;2023-04-02T19:47:01;100581.09;;;7.50;54.18
55317;BME280;41178;48.956;8.130;2023-04-02T19:52:03;100625.41;;;7.98;53.79
55317;BME280;41178;48.956;8.130;2023-04-02T19:57:05;100564.81;;;6.96;53.28
55317;BME280;41178;48.956;8.130;2023-04-02T20:02:07;100612.13;;;7.12;52.30
55317;BME280;41178;48.956;8.130;2023-04-02T20:07:10;100556.09;;;6.45;50.77
55317;BME280;41178;48.956;8.130;2023-04-02T20:12:12;100628.75;;;6.75;49.58
55317;BME280;41178;48.956;8.130;2023-04-02T20:17:14;100669.28;;;7.27;49.23
55317;BME280;41178;48.956;8.130;2023-04-02T20:22:15;100578.03;;;6.28;49.74
55317;BME280;41178;48.956;8.130;2023-04-02T20:27:19;100664.09;;;6.87;48.73
55317;BME280;41178;48.956;8.130;2023-04-02T20:32:21;100644.31;;;6.60;48.36
55317;BME280;41178;48.956;8.130;2023-04-02T20:37:23;100726.34;;;7.44;46.75
55317;BME280;41178;48.956;8.130;2023-04-02T20:42:24;100752.53;;;7.88;46.42
55317;BME280;41178;48.956;8.130;2023-04-02T20:47:26;100747.19;;;7.68;46.01
55317;BME280;41178;48.956;8.130;2023-04-02T20:52:31;100705.81;;;6.76;47.17
55317;BME280;41178;48.956;8.130;2023-04-02T20:57:33;100641.16;;;6.35;47.55
55317;BME280;41178;48.956;8.130;2023-04-02T21:02:35;100682.03;;;6.44;46.75
55317;BME280;41178;48.956;8.130;2023-04-02T21:07:37;100739.59;;;6.95;46.54
55317;BME280;41178;48.956;8.130;2023-04-02T21:12:38;100694.94;;;6.49;46.18
55317;BME280;41178;48.956;8.130;2023-04-02T21:17:40;100561.41;;;5.33;46.53
55317;BME280;41178;48.956;8.130;2023-04-02T21:22:42;100641.09;;;5.85;45.50
55317;BME280;41178;48.956;8.130;2023-04-02T21:27:43;100643.06;;;5.83;44.97
55317;BME280;41178;48.956;8.130;2023-04-02T21:32:45;100694.06;;;6.07;45.03
55317;BME280;41178;48.956;8.130;2023-04-02T21:37:47;100726.41;;;6.43;45.10
55317;BME280;41178;48.956;8.130;2023-04-02T21:42:49;100736.00;;;6.66;45.19
55317;BME280;41178;48.956;8.130;2023-04-02T21:47:50;100732.44;;;6.46;44.70
55317;BME280;41178;48.956;8.130;2023-04-02T21:52:52;100471.19;;;4.39;45.71
55317;BME280;41178;48.956;8.130;2023-04-02T21:57:54;100763.44;;;6.66;44.11
55317;BME280;41178;48.956;8.130;2023-04-02T22:02:55;100639.34;;;5.53;44.86
55317;BME280;41178;48.956;8.130;2023-04-02T22:07:57;100679.09;;;5.76;43.78
55317;BME280;41178;48.956;8.130;2023-04-02T22:12:59;100585.53;;;4.88;44.16
55317;BME280;41178;48.956;8.130;2023-04-02T22:18:00;100814.84;;;7.07;43.31
55317;BME280;41178;48.956;8.130;2023-04-02T22:23:02;100642.16;;;5.30;44.85
55317;BME280;41178;48.956;8.130;2023-04-02T22:28:04;100803.00;;;6.80;42.88
55317;BME280;41178;48.956;8.130;2023-04-02T22:33:05;100833.78;;;7.24;42.11
55317;BME280;41178;48.956;8.130;2023-04-02T22:38:07;100808.38;;;6.90;42.54
55317;BME280;41178;48.956;8.130;2023-04-02T22:43:09;100807.97;;;7.05;42.87
55317;BME280;41178;48.956;8.130;2023-04-02T22:48:11;100808.75;;;6.86;42.91
55317;BME280;41178;48.956;8.130;2023-04-02T22:53:12;100827.94;;;7.40;42.40
55317;BME280;41178;48.956;8.130;2023-04-02T22:58:15;100789.13;;;6.77;43.21
55317;BME280;41178;48.956;8.130;2023-04-02T23:03:17;100654.13;;;5.67;43.92
55317;BME280;41178;48.956;8.130;2023-04-02T23:08:19;100816.88;;;7.54;42.73
55317;BME280;41178;48.956;8.130;2023-04-02T23:13:21;100814.75;;;7.58;43.65
55317;BME280;41178;48.956;8.130;2023-04-02T23:18:22;100806.22;;;7.64;43.64
55317;BME280;41178;48.956;8.130;2023-04-02T23:23:25;100763.41;;;7.07;43.92
55317;BME280;41178;48.956;8.130;2023-04-02T23:28:27;100815.00;;;9.53;41.21
55317;BME280;41178;48.956;8.130;2023-04-02T23:33:29;100590.59;;;6.06;43.39
55317;BME280;41178;48.956;8.130;2023-04-02T23:38:31;100633.09;;;6.06;41.97
55317;BME280;41178;48.956;8.130;2023-04-02T23:43:32;100726.16;;;6.87;42.27
55317;BME280;41178;48.956;8.130;2023-04-02T23:48:34;100608.00;;;5.99;41.69
55317;BME280;41178;48.956;8.130;2023-04-02T23:53:36;100710.88;;;6.89;41.76
55317;BME280;41178;48.956;8.130;2023-04-02T23:58:37;100787.84;;;7.70;41.56
